Terminal Aerodrome Forecast
Issued by NWS Sterling, VA

Home | Current Version | Previous Version | Text Only | Print | Product List | Glossary On
Versions: 1 2 3 4 5 6 7 8 9 10 11 12 13 14 15 16 17 18 19 20
000
FTUS41 KLWX 302340
TAFMRB
TAF
KMRB 302340Z 3100/3124 13008KT P6SM OVC040
     FM310500 14006KT P6SM OVC025
     FM310800 12006KT 4SM -SHRA BR OVC008
     FM311200 10006KT 2SM RA BR OVC003
     FM311800 09005KT 3SM -SHRA BR OVC008
     FM312100 01004KT 5SM -SHRA OVC015=

USA.gov is the U.S. government's official web portal to all federal, state and local government web resources and services.